createdAt,value
2023-05-06T00:00:17.426Z,14.98
2023-05-06T00:05:19.175Z,16.90
2023-05-06T00:10:21.289Z,14.00
2023-05-06T00:15:23.082Z,15.52
2023-05-06T00:20:25.338Z,14.75
2023-05-06T00:25:27.062Z,17.27
2023-05-06T00:30:28.826Z,18.52
2023-05-06T00:35:31.378Z,15.25
2023-05-06T00:40:33.141Z,15.60
2023-05-06T00:45:35.596Z,15.82
2023-05-06T00:50:40.179Z,14.18
2023-05-06T00:55:42.139Z,20.17
2023-05-06T01:00:44.946Z,18.83
2023-05-06T01:06:06.980Z,17.45
2023-05-06T01:11:25.745Z,17.90
2023-05-06T01:16:30.824Z,19.60
2023-05-06T01:21:34.690Z,16.40
2023-05-06T01:26:36.465Z,15.40
2023-05-06T01:31:47.746Z,16.08
2023-05-06T01:37:10.780Z,17.25
2023-05-06T01:42:15.019Z,19.13
2023-05-06T01:47:17.636Z,17.55
2023-05-06T01:52:22.274Z,15.93
2023-05-06T01:57:23.961Z,20.88
2023-05-06T02:02:25.792Z,17.10
2023-05-06T02:07:27.545Z,18.08
2023-05-06T02:12:29.221Z,23.08
2023-05-06T02:17:30.937Z,19.83
2023-05-06T02:22:32.835Z,20.10
2023-05-06T02:27:34.738Z,17.15
2023-05-06T02:32:36.764Z,18.15
2023-05-06T02:37:38.547Z,17.27
2023-05-06T02:42:40.384Z,21.58
2023-05-06T02:47:42.215Z,16.63
2023-05-06T02:52:43.947Z,16.52
2023-05-06T02:57:45.629Z,19.60
2023-05-06T03:02:47.356Z,19.20
2023-05-06T03:07:49.034Z,17.63
2023-05-06T03:12:51.109Z,18.65
2023-05-06T03:17:53.078Z,18.65
2023-05-06T03:22:55.811Z,17.10
2023-05-06T03:27:57.488Z,17.95
2023-05-06T03:33:02.478Z,21.10
2023-05-06T03:38:04.206Z,18.65
2023-05-06T03:43:06.041Z,22.10
2023-05-06T03:48:07.783Z,20.05
2023-05-06T03:53:09.846Z,22.67
2023-05-06T03:58:11.603Z,21.35
2023-05-06T04:03:13.353Z,21.10
2023-05-06T04:08:17.229Z,24.15
2023-05-06T04:13:19.619Z,19.45
2023-05-06T04:18:21.374Z,21.00
2023-05-06T04:23:23.119Z,21.80
2023-05-06T04:28:24.934Z,24.30
2023-05-06T04:33:27.350Z,19.67
2023-05-06T04:38:31.955Z,22.85
2023-05-06T04:43:33.825Z,20.88
2023-05-06T04:48:35.575Z,25.17
2023-05-06T04:53:37.316Z,22.90
2023-05-06T04:58:39.107Z,25.80
2023-05-06T05:03:40.936Z,27.73
2023-05-06T05:08:42.717Z,30.13
2023-05-06T05:13:44.490Z,27.95
2023-05-06T05:18:46.208Z,25.13
2023-05-06T05:23:47.931Z,28.65
2023-05-06T05:28:49.691Z,28.05
2023-05-06T05:33:51.453Z,25.80
2023-05-06T05:38:53.924Z,22.27
2023-05-06T05:43:55.635Z,24.60
2023-05-06T05:48:57.309Z,26.25
2023-05-06T05:53:59.095Z,23.60
2023-05-06T05:59:01.209Z,22.63
2023-05-06T06:04:03.091Z,23.42
2023-05-06T06:09:04.953Z,24.17
2023-05-06T06:14:06.648Z,24.80
2023-05-06T06:19:08.622Z,22.48
2023-05-06T06:24:10.389Z,22.88
2023-05-06T06:29:12.353Z,21.88
2023-05-06T06:34:14.060Z,21.40
2023-05-06T06:39:15.936Z,18.20
2023-05-06T06:44:17.689Z,19.35
2023-05-06T06:49:19.340Z,22.25
2023-05-06T06:54:21.024Z,21.60
2023-05-06T06:59:22.982Z,22.35
2023-05-06T07:04:25.689Z,23.15
2023-05-06T07:09:27.418Z,25.08
2023-05-06T07:14:29.141Z,23.33
2023-05-06T07:19:33.499Z,25.63
2023-05-06T07:24:35.211Z,20.60
2023-05-06T07:29:37.422Z,23.60
2023-05-06T07:34:39.315Z,23.88
2023-05-06T07:39:41.194Z,21.67
2023-05-06T07:44:43.091Z,21.05
2023-05-06T07:49:44.873Z,21.48
2023-05-06T07:54:46.539Z,19.58
2023-05-06T07:59:50.283Z,19.42
2023-05-06T08:04:52.188Z,20.92
2023-05-06T08:09:53.968Z,20.05
2023-05-06T08:14:55.711Z,21.92
2023-05-06T08:19:57.422Z,20.23
2023-05-06T08:24:59.186Z,18.48
2023-05-06T08:30:00.972Z,20.95
2023-05-06T08:35:02.654Z,20.35
2023-05-06T08:40:05.364Z,17.70
2023-05-06T08:45:08.127Z,17.98
2023-05-06T08:50:11.024Z,15.98
2023-05-06T08:55:13.781Z,14.52
2023-05-06T09:00:15.999Z,15.98
2023-05-06T09:05:17.833Z,14.90
2023-05-06T09:10:19.616Z,13.95
2023-05-06T09:15:26.014Z,15.23
2023-05-06T09:20:27.760Z,16.98
2023-05-06T09:25:29.862Z,15.40
2023-05-06T09:30:31.714Z,16.33
2023-05-06T09:35:42.014Z,16.45
2023-05-06T09:40:43.750Z,16.17
2023-05-06T09:45:46.289Z,16.38
2023-05-06T09:50:48.059Z,15.10
2023-05-06T09:55:51.395Z,16.02
2023-05-06T10:00:53.853Z,20.50
2023-05-06T10:05:57.514Z,14.95
2023-05-06T10:11:01.170Z,16.67
2023-05-06T10:16:03.057Z,14.40
2023-05-06T10:21:13.936Z,12.30
2023-05-06T10:26:19.660Z,11.32
2023-05-06T10:31:21.488Z,13.18
2023-05-06T10:36:25.916Z,12.88
2023-05-06T10:41:29.075Z,14.30
2023-05-06T10:46:31.047Z,11.45
2023-05-06T10:51:33.965Z,10.57
2023-05-06T10:56:39.494Z,10.88
2023-05-06T11:01:43.803Z,12.73
2023-05-06T11:06:52.424Z,12.52
2023-05-06T11:12:05.035Z,11.27
2023-05-06T11:17:08.970Z,14.18
2023-05-06T11:22:42.736Z,11.20
2023-05-06T11:27:44.462Z,12.43
2023-05-06T11:32:47.230Z,11.77
2023-05-06T11:37:52.073Z,11.30
2023-05-06T11:42:53.800Z,13.52
2023-05-06T11:47:55.899Z,13.05
2023-05-06T11:52:58.414Z,12.35
2023-05-06T11:58:02.835Z,13.80
2023-05-06T12:03:04.608Z,11.13
2023-05-06T12:08:13.440Z,13.63
2023-05-06T12:13:19.857Z,11.57
2023-05-06T12:18:23.114Z,11.40
2023-05-06T12:23:24.903Z,10.80
2023-05-06T12:28:26.933Z,10.88
2023-05-06T12:33:45.164Z,12.32
2023-05-06T12:39:00.834Z,13.02
2023-05-06T12:44:02.686Z,12.15
2023-05-06T12:49:04.407Z,11.20
2023-05-06T12:54:29.496Z,13.18
2023-05-06T12:59:32.012Z,10.20
2023-05-06T13:04:33.704Z,10.43
2023-05-06T13:09:35.412Z,10.95
2023-05-06T13:14:39.932Z,12.30
2023-05-06T13:19:42.182Z,13.75
2023-05-06T13:24:43.844Z,11.32
2023-05-06T13:29:45.606Z,10.77
2023-05-06T13:34:47.281Z,11.45
2023-05-06T13:39:48.962Z,9.80
2023-05-06T13:44:50.773Z,11.35
2023-05-06T13:49:52.441Z,11.55
2023-05-06T13:54:54.239Z,11.57
2023-05-06T13:59:56.282Z,9.85
2023-05-06T14:04:58.011Z,9.98
2023-05-06T14:09:59.747Z,11.07
2023-05-06T14:15:01.463Z,11.45
2023-05-06T14:20:05.241Z,12.23
2023-05-06T14:25:07.720Z,13.77
2023-05-06T14:30:10.195Z,13.25
2023-05-06T14:35:12.175Z,11.70
2023-05-06T14:40:15.633Z,9.65
2023-05-06T14:45:17.506Z,11.18
2023-05-06T14:50:19.219Z,12.20
2023-05-06T14:55:21.100Z,10.75
2023-05-06T15:00:23.169Z,10.52
2023-05-06T15:05:24.947Z,10.57
2023-05-06T15:10:26.738Z,11.40
2023-05-06T15:15:28.501Z,12.05
2023-05-06T15:20:30.827Z,11.65
2023-05-06T15:25:36.025Z,10.23
2023-05-06T15:30:39.143Z,9.43
2023-05-06T15:35:40.868Z,10.48
2023-05-06T15:40:50.971Z,8.90
2023-05-06T15:45:52.955Z,8.15
2023-05-06T15:50:54.775Z,10.95
2023-05-06T15:56:03.565Z,14.50
2023-05-06T16:01:14.738Z,13.88
2023-05-06T16:06:16.634Z,12.60
2023-05-06T16:11:18.383Z,12.85
2023-05-06T16:16:20.407Z,23.13
2023-05-06T16:21:22.141Z,22.23
2023-05-06T16:26:25.711Z,14.75
2023-05-06T16:31:30.085Z,13.68
2023-05-06T16:36:31.977Z,20.00
2023-05-06T16:41:34.312Z,19.90
2023-05-06T16:46:36.284Z,20.27
2023-05-06T16:51:38.000Z,18.30
2023-05-06T16:56:50.702Z,20.35
2023-05-06T17:01:53.665Z,18.95
2023-05-06T17:06:55.550Z,20.05
2023-05-06T17:11:57.299Z,21.55
2023-05-06T17:17:03.230Z,16.33
2023-05-06T17:22:05.028Z,16.80
2023-05-06T17:27:07.251Z,16.85
2023-05-06T17:32:11.867Z,17.90
2023-05-06T17:37:14.918Z,22.50
2023-05-06T17:42:17.942Z,19.13
2023-05-06T17:47:22.827Z,18.92
2023-05-06T17:52:28.067Z,17.55
2023-05-06T17:57:30.373Z,20.67
2023-05-06T18:02:32.330Z,20.05
2023-05-06T18:07:35.751Z,18.95
2023-05-06T18:12:37.558Z,19.75
2023-05-06T18:17:39.321Z,21.30
2023-05-06T18:22:42.806Z,19.60
2023-05-06T18:27:44.629Z,21.88
2023-05-06T18:32:47.376Z,23.63
2023-05-06T18:37:50.488Z,21.25
2023-05-06T18:42:54.155Z,23.48
2023-05-06T18:47:56.364Z,18.23
2023-05-06T18:52:58.036Z,16.63
2023-05-06T18:58:06.048Z,16.98
2023-05-06T19:03:08.296Z,16.25
2023-05-06T19:08:10.290Z,16.23
2023-05-06T19:13:12.200Z,16.55
2023-05-06T19:18:14.074Z,16.73
2023-05-06T19:23:15.919Z,16.45
2023-05-06T19:28:17.799Z,14.32
2023-05-06T19:33:21.895Z,14.98
2023-05-06T19:38:23.581Z,16.05
2023-05-06T19:43:25.321Z,14.82
2023-05-06T19:48:27.067Z,16.23
2023-05-06T19:53:28.949Z,14.45
2023-05-06T19:58:30.706Z,16.35
2023-05-06T20:03:32.808Z,15.93
2023-05-06T20:08:35.220Z,15.27
2023-05-06T20:13:37.029Z,14.85
2023-05-06T20:18:40.516Z,16.33
2023-05-06T20:23:42.330Z,14.52
2023-05-06T20:28:44.005Z,13.75
2023-05-06T20:33:46.960Z,14.23
2023-05-06T20:38:51.007Z,14.80
2023-05-06T20:43:57.120Z,17.20
2023-05-06T20:49:00.214Z,13.23
2023-05-06T20:54:01.988Z,12.35
2023-05-06T20:59:03.761Z,12.48
2023-05-06T21:04:06.347Z,13.70
2023-05-06T21:09:08.968Z,11.27
2023-05-06T21:14:10.799Z,12.25
2023-05-06T21:19:12.579Z,11.65
2023-05-06T21:24:15.368Z,11.77
2023-05-06T21:29:18.099Z,11.85
2023-05-06T21:34:20.034Z,11.98
2023-05-06T21:39:21.764Z,11.75
2023-05-06T21:44:23.511Z,12.00
2023-05-06T21:49:25.764Z,11.23
2023-05-06T21:54:28.963Z,10.80
2023-05-06T21:59:30.664Z,11.00
2023-05-06T22:04:33.162Z,11.63
2023-05-06T22:09:34.909Z,8.30
2023-05-06T22:14:41.629Z,9.80
2023-05-06T22:19:43.680Z,8.43
2023-05-06T22:24:49.103Z,8.20
2023-05-06T22:29:52.104Z,7.97
2023-05-06T22:34:53.842Z,8.38
2023-05-06T22:39:59.448Z,8.23
2023-05-06T22:45:01.459Z,7.93
2023-05-06T22:50:04.546Z,9.02
2023-05-06T22:55:09.517Z,11.77
2023-05-06T23:00:13.580Z,10.45
2023-05-06T23:05:16.349Z,11.93
2023-05-06T23:10:18.960Z,10.93
2023-05-06T23:15:22.960Z,11.68
2023-05-06T23:20:25.003Z,11.82
2023-05-06T23:25:27.440Z,12.43
2023-05-06T23:30:30.587Z,11.68
2023-05-06T23:35:34.751Z,12.48
2023-05-06T23:40:36.428Z,12.73
2023-05-06T23:45:38.737Z,11.63
2023-05-06T23:50:43.490Z,12.00
2023-05-06T23:55:46.239Z,12.57
